Pagina principale
METAR-TAF:

METAR-TAF

Aeroporti :

Amman, Giordania

latitudine: 31-59N, longitudine: 035-59E, altezza: 767 m

Osservazione

Il bollettino è stato emesso 50 minuti fa, alle 03:00 UTC
Vento calmo
Temperature 23°C
Umidità 41%
Pressione 1013 hPa
Visibilità: 5000 m
foschia

METAR: OJAM 200300Z 00000KT 5000 HZ NSC 23/09 Q1013 NOSIG

Ora: 06:50 (03:50 UTC)

Previsione

Il bollettino è stato emesso 4 ore e 57 minuti fa, alle 22:53 UTC
Previsione valida dal 20 alle 00 UTC al 21 alle 06 UTC
Vento kt da nord
Visibilità: 6000 m
Probabilità 30% :
Temporaneamente
dal 20 alle 02 UTC al 20 alle 06 UTC
Vento 1 kt da direzioni variabili
Visibilità: 3000 m
fumo
Probabilità 40% :
Temporaneamente
dal 20 alle 12 UTC al 20 alle 15 UTC
Vento 10 kt da ovest
Visibilità: 5000 m
foschia

TAF: OJAM 192253Z 2000/2106 00000KT 6000 NSC PROB30 TEMPO 2002/2006 VRB01KT 3000 FU PROB40 TEMPO 2012/2015 28010KT 5000 HZ

Osservazioni e previsioni meteorologiche di più di 4000 aeroporti (messaggi METAR e TAF).

Le stazioni disponibili sono rappresentate dai dischi gialli e rossi sulla carta.

Puntare il mouse per vedere il nome della stazione.

Clicca sopra per visualizzare le osservazioni e previsioni meteorologiche.

Per cambiare la mappa : fare clic sui pulsanti verdi con una croce nera per ingrandire, il pulsante verde con un trattino per diminuire, o sulla freccia verde per le mappe adiacenti.


METAR-TAF: